Time;durP1;ratioP1;P1;durP2;ratioP2;P2;SDS_P1;SDS_P2;PMS_P1;PMS_P2;Temp;Humidity;BMP_temperature;BMP_pressure;BME280_temperature;BME280_humidity;BME280_pressure;Samples;Min_cycle;Max_cycle;Signal;HPM_P1;HPM_P2
2022/08/08 00:01:16;;;;;;;14.52;14.00;;;;;;;;;;5114476;28;20193;-73
2022/08/08 00:03:55;;;;;;;14.30;13.80;;;;;;;;;;5114660;28;20193;-76
2022/08/08 00:06:32;;;;;;;14.05;13.55;;;;;;;;;;5114755;28;20185;-73
2022/08/08 00:09:02;;;;;;;14.20;13.70;;;;;;;;;;5114613;28;20181;-73
2022/08/08 00:11:34;;;;;;;13.90;13.40;;;;;;;;;;5114525;28;20200;-72
2022/08/08 00:14:04;;;;;;;13.70;13.20;;;;;;;;;;5114414;28;20225;-72
2022/08/08 00:16:37;;;;;;;13.55;13.05;;;;;;;;;;5114456;28;20193;-72
2022/08/08 00:19:09;;;;;;;13.00;12.60;;;;;;;;;;5114180;28;20221;-72
2022/08/08 00:21:41;;;;;;;13.40;12.90;;;;;;;;;;5114390;28;20191;-72
2022/08/08 00:24:13;;;;;;;13.52;13.02;;;;;;;;;;5114320;28;20212;-76
2022/08/08 00:26:43;;;;;;;13.43;12.93;;;;;;;;;;5114310;28;20181;-73
2022/08/08 00:29:14;;;;;;;13.18;12.68;;;;;;;;;;5114173;28;20203;-73
2022/08/08 00:31:42;;;;;;;13.40;12.90;;;;;;;;;;5114185;28;20222;-72
2022/08/08 00:37:07;;;;;;;13.70;13.20;;;;;;;;;;5114492;28;20180;-73
2022/08/08 00:39:38;;;;;;;13.48;12.98;;;;;;;;;;5114035;28;20242;-76
2022/08/08 00:42:20;;;;;;;13.18;12.77;;;;;;;;;;5114002;28;20189;-76
2022/08/08 00:45:02;;;;;;;13.48;12.98;;;;;;;;;;5097081;28;20193;-72
2022/08/08 00:47:58;;;;;;;12.95;12.55;;;;;;;;;;5113871;28;20185;-73
2022/08/08 00:50:44;;;;;;;12.98;12.57;;;;;;;;;;5113877;28;20711;-72
2022/08/08 00:53:16;;;;;;;12.77;12.38;;;;;;;;;;5113671;28;20301;-71
2022/08/08 00:55:56;;;;;;;12.80;12.40;;;;;;;;;;5113723;28;20246;-72
2022/08/08 00:58:32;;;;;;;12.27;11.88;;;;;;;;;;5113691;28;20601;-71
2022/08/08 01:01:05;;;;;;;12.63;12.23;;;;;;;;;;5113649;28;20189;-72
2022/08/08 01:03:51;;;;;;;12.32;11.93;;;;;;;;;;5113590;28;20230;-72
2022/08/08 01:06:24;;;;;;;12.40;12.00;;;;;;;;;;5113487;28;20193;-72
2022/08/08 01:09:09;;;;;;;12.82;12.43;;;;;;;;;;5113793;28;20615;-72
2022/08/08 01:11:53;;;;;;;12.55;12.15;;;;;;;;;;5113720;28;20264;-72
2022/08/08 01:14:39;;;;;;;12.70;12.30;;;;;;;;;;5071787;28;20232;-71
2022/08/08 01:17:27;;;;;;;12.90;12.50;;;;;;;;;;5113283;28;20189;-76
2022/08/08 01:20:09;;;;;;;13.00;12.60;;;;;;;;;;5079135;28;20197;-71
2022/08/08 01:22:48;;;;;;;12.85;12.45;;;;;;;;;;5096491;28;20287;-72
2022/08/08 01:25:38;;;;;;;13.07;12.68;;;;;;;;;;5113414;28;20555;-72
2022/08/08 01:28:09;;;;;;;13.50;13.00;;;;;;;;;;5113131;28;20185;-75
2022/08/08 01:30:57;;;;;;;13.93;13.43;;;;;;;;;;5113050;28;20651;-73
2022/08/08 01:33:39;;;;;;;14.25;13.75;;;;;;;;;;5112906;28;20213;-73
2022/08/08 01:36:20;;;;;;;14.40;13.90;;;;;;;;;;5113273;28;20613;-73
2022/08/08 01:38:59;;;;;;;13.77;13.27;;;;;;;;;;5112942;28;20189;-73
2022/08/08 01:41:29;;;;;;;14.15;13.65;;;;;;;;;;5112846;28;20663;-73
2022/08/08 01:44:02;;;;;;;14.20;13.70;;;;;;;;;;5113167;28;20197;-73
2022/08/08 01:46:42;;;;;;;14.10;13.60;;;;;;;;;;5112793;28;20193;-73
2022/08/08 01:49:17;;;;;;;13.48;12.98;;;;;;;;;;5112850;28;20246;-75
2022/08/08 01:51:59;;;;;;;13.80;13.30;;;;;;;;;;5112696;28;20536;-73
2022/08/08 01:54:32;;;;;;;13.57;13.07;;;;;;;;;;5109836;28;20297;-73
2022/08/08 01:57:07;;;;;;;13.70;13.20;;;;;;;;;;5112685;28;20654;-72
2022/08/08 01:59:39;;;;;;;13.60;13.10;;;;;;;;;;5113494;28;20188;-75
2022/08/08 02:02:09;;;;;;;13.50;13.00;;;;;;;;;;5113436;28;20189;-73
2022/08/08 02:04:41;;;;;;;13.60;13.10;;;;;;;;;;5112559;28;20242;-75
2022/08/08 02:07:10;;;;;;;13.43;12.95;;;;;;;;;;5112536;28;20185;-75
2022/08/08 02:09:49;;;;;;;13.10;12.70;;;;;;;;;;5112484;28;20222;-75
2022/08/08 02:12:21;;;;;;;13.05;12.65;;;;;;;;;;5112817;28;20540;-73
2022/08/08 02:14:51;;;;;;;12.98;12.57;;;;;;;;;;5112434;28;20217;-73
2022/08/08 02:17:21;;;;;;;12.90;12.50;;;;;;;;;;5112742;28;20189;-72
2022/08/08 02:19:54;;;;;;;12.52;12.13;;;;;;;;;;5071879;28;20250;-76
2022/08/08 02:22:32;;;;;;;12.80;12.40;;;;;;;;;;5072179;28;20214;-73
2022/08/08 02:25:08;;;;;;;13.55;13.05;;;;;;;;;;5073953;28;20186;-75
2022/08/08 02:27:38;;;;;;;13.73;13.23;;;;;;;;;;5076001;28;20725;-75
2022/08/08 02:30:07;;;;;;;13.68;13.18;;;;;;;;;;5076199;28;20186;-73
2022/08/08 02:32:53;;;;;;;13.77;13.27;;;;;;;;;;5075820;28;20256;-73
2022/08/08 02:35:30;;;;;;;13.70;13.20;;;;;;;;;;5075712;28;20218;-73
2022/08/08 02:38:08;;;;;;;13.55;13.05;;;;;;;;;;5075752;28;20192;-75
2022/08/08 02:40:40;;;;;;;13.30;12.80;;;;;;;;;;5076007;28;20248;-76
2022/08/08 02:43:14;;;;;;;13.35;12.85;;;;;;;;;;5076006;28;20255;-75
2022/08/08 02:46:02;;;;;;;13.00;12.60;;;;;;;;;;5075645;28;20187;-73
2022/08/08 02:48:49;;;;;;;12.68;12.27;;;;;;;;;;5058006;28;20198;-73
2022/08/08 02:51:32;;;;;;;12.52;12.13;;;;;;;;;;5072026;28;20269;-73
2022/08/08 02:54:07;;;;;;;11.43;11.02;;;;;;;;;;5075416;28;20218;-75
2022/08/08 02:56:52;;;;;;;11.25;10.90;;;;;;;;;;5075326;28;20190;-73
2022/08/08 02:59:37;;;;;;;10.90;10.60;;;;;;;;;;5075384;28;20225;-72
2022/08/08 03:02:26;;;;;;;10.10;9.80;;;;;;;;;;5075223;28;20285;-75
2022/08/08 03:05:12;;;;;;;10.15;9.85;;;;;;;;;;5075196;28;20248;-72
2022/08/08 03:08:05;;;;;;;9.75;9.45;;;;;;;;;;5075196;28;20217;-76
2022/08/08 03:10:47;;;;;;;9.93;9.63;;;;;;;;;;5075407;28;20208;-72
2022/08/08 03:13:31;;;;;;;10.60;10.30;;;;;;;;;;5075040;28;20216;-72
2022/08/08 03:16:25;;;;;;;10.90;10.60;;;;;;;;;;5067997;28;20750;-72
2022/08/08 03:19:02;;;;;;;10.90;10.60;;;;;;;;;;5100309;28;20780;-72
2022/08/08 03:21:29;;;;;;;11.05;10.75;;;;;;;;;;5114641;28;20200;-72
2022/08/08 03:23:57;;;;;;;11.27;10.93;;;;;;;;;;5115475;28;20200;-72
2022/08/08 03:26:29;;;;;;;11.38;10.98;;;;;;;;;;5115436;28;20208;-75
2022/08/08 03:28:58;;;;;;;11.10;10.80;;;;;;;;;;5115438;28;20192;-72
2022/08/08 03:34:10;;;;;;;10.35;10.05;;;;;;;;;;5115333;28;20212;-72
2022/08/08 03:36:40;;;;;;;10.57;10.27;;;;;;;;;;5114532;28;20254;-72
2022/08/08 03:39:11;;;;;;;10.80;10.50;;;;;;;;;;5115206;28;20189;-75
2022/08/08 03:41:38;;;;;;;10.60;10.30;;;;;;;;;;5115482;28;20185;-72
2022/08/08 03:44:05;;;;;;;10.48;10.18;;;;;;;;;;5115116;28;20197;-72
2022/08/08 03:46:43;;;;;;;10.88;10.57;;;;;;;;;;5115014;28;20655;-72
2022/08/08 03:49:16;;;;;;;11.00;10.70;;;;;;;;;;5115090;28;20181;-72
2022/08/08 03:51:43;;;;;;;11.00;10.70;;;;;;;;;;5115277;28;20185;-72
2022/08/08 03:54:11;;;;;;;11.63;11.23;;;;;;;;;;5114846;28;20690;-72
2022/08/08 03:56:38;;;;;;;12.40;12.00;;;;;;;;;;5114838;28;20280;-72
2022/08/08 03:59:05;;;;;;;12.80;12.40;;;;;;;;;;5115147;28;20269;-71
2022/08/08 04:01:36;;;;;;;13.32;12.93;;;;;;;;;;5114781;28;20193;-72
2022/08/08 04:04:02;;;;;;;14.05;13.55;;;;;;;;;;5114723;28;20233;-72
2022/08/08 04:06:29;;;;;;;14.30;13.80;;;;;;;;;;5114976;28;20196;-72
2022/08/08 04:08:56;;;;;;;14.40;13.90;;;;;;;;;;5114598;28;20200;-72
2022/08/08 04:11:25;;;;;;;14.20;13.70;;;;;;;;;;5114872;28;20193;-72
2022/08/08 04:13:52;;;;;;;14.02;13.52;;;;;;;;;;5114434;28;20254;-76
2022/08/08 04:16:19;;;;;;;14.02;13.52;;;;;;;;;;5114514;28;20667;-76
2022/08/08 04:18:48;;;;;;;15.45;14.85;;;;;;;;;;5114351;28;20258;-75
2022/08/08 04:21:15;;;;;;;15.30;14.70;;;;;;;;;;5114371;28;20201;-72
2022/08/08 04:23:42;;;;;;;15.20;14.60;;;;;;;;;;5114638;28;20197;-72
2022/08/08 04:26:10;;;;;;;16.30;15.60;;;;;;;;;;5114252;28;20197;-73
2022/08/08 04:28:38;;;;;;;17.25;16.55;;;;;;;;;;5114226;28;20235;-73
2022/08/08 04:31:05;;;;;;;17.38;16.67;;;;;;;;;;5114193;28;20193;-76
2022/08/08 04:33:32;;;;;;;16.92;16.23;;;;;;;;;;5114140;28;20197;-73
2022/08/08 04:35:59;;;;;;;16.88;16.17;;;;;;;;;;5114052;28;20221;-73
2022/08/08 04:38:26;;;;;;;16.60;15.90;;;;;;;;;;5114321;28;20243;-73
2022/08/08 04:40:53;;;;;;;16.70;16.00;;;;;;;;;;5114019;28;20390;-73
2022/08/08 04:43:20;;;;;;;17.50;16.70;;;;;;;;;;5113912;28;20232;-73
2022/08/08 04:45:49;;;;;;;17.77;16.98;;;;;;;;;;5113941;28;20193;-72
2022/08/08 04:48:16;;;;;;;18.02;17.23;;;;;;;;;;5113101;28;20225;-73
2022/08/08 04:50:43;;;;;;;18.05;17.15;;;;;;;;;;5113768;28;20628;-73
2022/08/08 04:53:10;;;;;;;18.48;17.58;;;;;;;;;;5113823;28;20250;-73
2022/08/08 04:55:37;;;;;;;18.45;17.55;;;;;;;;;;5113876;28;20331;-74
2022/08/08 04:58:04;;;;;;;18.40;17.50;;;;;;;;;;5113684;28;20201;-73
2022/08/08 05:00:31;;;;;;;18.13;17.23;;;;;;;;;;5113607;28;20659;-73
2022/08/08 05:02:59;;;;;;;18.63;17.67;;;;;;;;;;5114100;28;20224;-73
2022/08/08 05:05:26;;;;;;;18.90;17.90;;;;;;;;;;5113510;28;20196;-73
2022/08/08 05:07:53;;;;;;;19.23;18.23;;;;;;;;;;5113425;28;20189;-75
2022/08/08 05:10:20;;;;;;;19.33;18.33;;;;;;;;;;5113771;28;20216;-74
2022/08/08 05:12:47;;;;;;;19.83;18.73;;;;;;;;;;5113364;28;20193;-73
2022/08/08 05:15:14;;;;;;;19.77;18.67;;;;;;;;;;5113262;28;20637;-73
2022/08/08 05:17:41;;;;;;;19.83;18.73;;;;;;;;;;5113094;28;20663;-74
2022/08/08 05:20:10;;;;;;;20.55;19.45;;;;;;;;;;5113557;28;20272;-76
2022/08/08 05:22:37;;;;;;;19.85;18.75;;;;;;;;;;5113179;28;20193;-75
2022/08/08 05:25:05;;;;;;;19.60;18.60;;;;;;;;;;5113095;28;20228;-74
2022/08/08 05:27:32;;;;;;;19.17;18.17;;;;;;;;;;5113127;28;20203;-76
2022/08/08 05:29:59;;;;;;;20.17;19.10;;;;;;;;;;5113359;28;20624;-74
2022/08/08 05:32:26;;;;;;;19.88;18.77;;;;;;;;;;5112980;28;20193;-74
2022/08/08 05:34:53;;;;;;;19.42;18.42;;;;;;;;;;5112929;28;20221;-74
2022/08/08 05:37:23;;;;;;;19.35;18.35;;;;;;;;;;5113244;28;20197;-74
2022/08/08 05:39:52;;;;;;;18.90;17.90;;;;;;;;;;5112922;28;20264;-74
2022/08/08 05:42:19;;;;;;;18.95;17.95;;;;;;;;;;5112869;28;20258;-74
2022/08/08 05:44:47;;;;;;;20.05;18.95;;;;;;;;;;5113132;28;20201;-74
2022/08/08 05:47:14;;;;;;;19.17;18.17;;;;;;;;;;5112864;28;20686;-74
2022/08/08 05:49:42;;;;;;;19.35;18.35;;;;;;;;;;5112734;28;20193;-75
2022/08/08 05:52:10;;;;;;;18.80;17.80;;;;;;;;;;5113030;28;20190;-74
2022/08/08 05:54:38;;;;;;;18.90;17.90;;;;;;;;;;5112874;28;20282;-76
2022/08/08 05:57:07;;;;;;;19.55;18.45;;;;;;;;;;5112653;28;20193;-76
2022/08/08 05:59:36;;;;;;;19.38;18.27;;;;;;;;;;5112254;28;20199;-75
2022/08/08 06:02:04;;;;;;;19.08;17.98;;;;;;;;;;5112877;28;20266;-74
2022/08/08 06:04:56;;;;;;;19.38;18.27;;;;;;;;;;5112470;28;20193;-75
2022/08/08 06:07:23;;;;;;;19.23;18.15;;;;;;;;;;5112547;28;20647;-75
2022/08/08 06:09:52;;;;;;;18.95;17.85;;;;;;;;;;5112446;28;20193;-74
2022/08/08 06:12:19;;;;;;;19.48;18.38;;;;;;;;;;5112484;28;20574;-74
2022/08/08 06:14:46;;;;;;;19.65;18.48;;;;;;;;;;5112736;28;20224;-75
2022/08/08 06:17:13;;;;;;;18.88;17.77;;;;;;;;;;5112422;28;20197;-75
2022/08/08 06:19:41;;;;;;;18.45;17.45;;;;;;;;;;5112266;28;20224;-75
2022/08/08 06:22:10;;;;;;;18.25;17.25;;;;;;;;;;5112322;28;20193;-74
2022/08/08 06:24:37;;;;;;;19.25;18.15;;;;;;;;;;5112393;28;20703;-75
2022/08/08 06:27:09;;;;;;;19.45;18.25;;;;;;;;;;5112369;28;20199;-76
2022/08/08 06:29:40;;;;;;;20.33;19.13;;;;;;;;;;5112551;28;20686;-75
2022/08/08 06:32:09;;;;;;;19.70;18.50;;;;;;;;;;5112322;28;20634;-74
2022/08/08 06:34:39;;;;;;;20.20;19.00;;;;;;;;;;5112580;28;20193;-75
2022/08/08 06:37:09;;;;;;;19.75;18.55;;;;;;;;;;5112258;28;20201;-77
2022/08/08 06:39:37;;;;;;;19.77;18.58;;;;;;;;;;5112406;28;20246;-75
2022/08/08 06:42:08;;;;;;;20.13;18.92;;;;;;;;;;5112605;28;20253;-75
2022/08/08 06:44:35;;;;;;;20.10;18.90;;;;;;;;;;5112768;28;20958;-74
2022/08/08 06:47:02;;;;;;;19.67;18.48;;;;;;;;;;5112199;28;20620;-76
2022/08/08 06:49:29;;;;;;;20.20;19.00;;;;;;;;;;5112240;28;20189;-75
2022/08/08 06:51:56;;;;;;;20.30;19.10;;;;;;;;;;5112407;28;20193;-74
2022/08/08 06:54:23;;;;;;;19.23;18.02;;;;;;;;;;5112100;28;20620;-75
2022/08/08 06:56:51;;;;;;;19.77;18.48;;;;;;;;;;5111977;28;20266;-75
2022/08/08 06:59:20;;;;;;;19.65;18.35;;;;;;;;;;5112069;28;20236;-75
2022/08/08 07:01:48;;;;;;;20.08;18.75;;;;;;;;;;5112252;28;20231;-77
2022/08/08 07:04:17;;;;;;;19.65;18.35;;;;;;;;;;5112977;28;20288;-76
2022/08/08 07:06:46;;;;;;;19.90;18.60;;;;;;;;;;5111922;28;20720;-75
2022/08/08 07:09:13;;;;;;;19.45;18.15;;;;;;;;;;5112683;28;20621;-76
2022/08/08 07:11:41;;;;;;;20.20;18.80;;;;;;;;;;5113475;28;20200;-75
2022/08/08 07:14:09;;;;;;;20.00;18.65;;;;;;;;;;5118135;28;20200;-75
2022/08/08 07:16:41;;;;;;;20.15;18.75;;;;;;;;;;5115866;28;20225;-75
2022/08/08 07:19:12;;;;;;;19.35;17.95;;;;;;;;;;5115811;28;20237;-76
2022/08/08 07:21:43;;;;;;;19.75;18.35;;;;;;;;;;5115834;28;20189;-76
2022/08/08 07:24:13;;;;;;;19.38;18.05;;;;;;;;;;5115979;28;20735;-77
2022/08/08 07:26:41;;;;;;;19.50;18.10;;;;;;;;;;5116010;28;20276;-75
2022/08/08 07:29:08;;;;;;;19.50;18.20;;;;;;;;;;5115401;28;20243;-77
2022/08/08 07:31:35;;;;;;;20.02;18.70;;;;;;;;;;5116661;28;20189;-77
2022/08/08 07:34:04;;;;;;;19.85;18.55;;;;;;;;;;5115669;28;20193;-76
2022/08/08 07:36:32;;;;;;;20.35;19.05;;;;;;;;;;5115375;28;20236;-75
2022/08/08 07:39:00;;;;;;;19.70;18.40;;;;;;;;;;5116037;28;20610;-75
2022/08/08 07:41:28;;;;;;;19.67;18.48;;;;;;;;;;5115176;28;20193;-76
2022/08/08 07:43:57;;;;;;;20.30;19.00;;;;;;;;;;5116251;28;20246;-77
2022/08/08 07:46:24;;;;;;;19.63;18.33;;;;;;;;;;5115763;28;20193;-76
2022/08/08 07:48:51;;;;;;;19.20;17.90;;;;;;;;;;5115935;28;20577;-76
2022/08/08 07:51:20;;;;;;;19.25;18.00;;;;;;;;;;5115643;28;20193;-77
2022/08/08 07:53:49;;;;;;;19.75;18.45;;;;;;;;;;5114987;28;20189;-77
2022/08/08 07:56:17;;;;;;;19.73;18.42;;;;;;;;;;5115899;28;20292;-76
2022/08/08 07:58:45;;;;;;;20.15;18.85;;;;;;;;;;5117163;28;20193;-78
2022/08/08 08:01:14;;;;;;;19.85;18.55;;;;;;;;;;5116367;28;20193;-76
2022/08/08 08:03:44;;;;;;;20.77;19.48;;;;;;;;;;5116100;28;20197;-77
2022/08/08 08:06:12;;;;;;;20.92;19.60;;;;;;;;;;5115331;28;20607;-78
2022/08/08 08:08:41;;;;;;;20.27;18.98;;;;;;;;;;5116270;28;20193;-76
2022/08/08 08:11:11;;;;;;;20.98;19.67;;;;;;;;;;5115110;28;20228;-77
2022/08/08 08:13:41;;;;;;;21.77;20.38;;;;;;;;;;5115190;28;20680;-77
2022/08/08 08:16:09;;;;;;;21.23;19.83;;;;;;;;;;5115116;28;20229;-78
2022/08/08 08:18:39;;;;;;;21.95;20.52;;;;;;;;;;5115473;28;20356;-77
2022/08/08 08:21:07;;;;;;;21.63;20.13;;;;;;;;;;5115317;28;20192;-76
2022/08/08 08:23:34;;;;;;;21.35;19.95;;;;;;;;;;5116010;28;20196;-76
2022/08/08 08:26:02;;;;;;;21.80;20.30;;;;;;;;;;5114609;28;20250;-79
2022/08/08 08:28:29;;;;;;;21.23;19.83;;;;;;;;;;5114463;28;20200;-78
2022/08/08 08:31:03;;;;;;;22.00;20.50;;;;;;;;;;5114489;28;20212;-79
2022/08/08 08:33:30;;;;;;;21.38;19.98;;;;;;;;;;5114420;28;20222;-78
2022/08/08 08:35:57;;;;;;;22.00;20.50;;;;;;;;;;5114377;28;20228;-76
2022/08/08 08:38:24;;;;;;;22.60;21.10;;;;;;;;;;5114357;28;20229;-76
2022/08/08 08:40:52;;;;;;;22.70;21.20;;;;;;;;;;5114887;28;20242;-77
2022/08/08 08:43:21;;;;;;;22.05;20.55;;;;;;;;;;5114118;28;20193;-77
2022/08/08 08:45:48;;;;;;;22.05;20.55;;;;;;;;;;5114064;28;20292;-78
2022/08/08 08:48:17;;;;;;;22.50;21.00;;;;;;;;;;5113992;28;20197;-78
2022/08/08 08:50:44;;;;;;;22.55;21.05;;;;;;;;;;5114263;28;20197;-77
2022/08/08 08:53:12;;;;;;;22.77;21.27;;;;;;;;;;5114067;28;20200;-77
2022/08/08 08:55:40;;;;;;;22.13;20.67;;;;;;;;;;5114284;28;20307;-77
2022/08/08 08:58:08;;;;;;;23.00;21.42;;;;;;;;;;5114218;28;20201;-77
2022/08/08 09:00:37;;;;;;;22.17;20.67;;;;;;;;;;5114281;28;20271;-77
2022/08/08 09:03:08;;;;;;;22.25;20.75;;;;;;;;;;5114088;28;20189;-77
2022/08/08 09:05:36;;;;;;;22.15;20.67;;;;;;;;;;5114452;28;20189;-77
2022/08/08 09:08:04;;;;;;;22.38;20.88;;;;;;;;;;5113681;28;20195;-78
2022/08/08 09:10:32;;;;;;;21.65;20.25;;;;;;;;;;5113613;28;20189;-77
2022/08/08 09:13:00;;;;;;;21.65;20.25;;;;;;;;;;5113616;28;20196;-80
2022/08/08 09:15:27;;;;;;;21.60;20.10;;;;;;;;;;5113339;28;20257;-75
2022/08/08 09:17:56;;;;;;;22.02;20.52;;;;;;;;;;5113406;28;20280;-77
2022/08/08 09:20:24;;;;;;;22.05;20.55;;;;;;;;;;5113794;28;20268;-77
2022/08/08 09:22:52;;;;;;;22.17;20.67;;;;;;;;;;5113477;28;20189;-80
2022/08/08 09:25:19;;;;;;;22.10;20.60;;;;;;;;;;5113543;28;20189;-77
2022/08/08 09:27:46;;;;;;;22.02;20.52;;;;;;;;;;5113735;28;20197;-79
2022/08/08 09:30:14;;;;;;;21.65;20.15;;;;;;;;;;5113422;28;20284;-77
2022/08/08 09:32:42;;;;;;;21.58;20.08;;;;;;;;;;5113179;28;20283;-73
2022/08/08 09:35:12;;;;;;;22.25;20.75;;;;;;;;;;5112854;28;20193;-79
2022/08/08 09:37:43;;;;;;;22.00;20.52;;;;;;;;;;5113178;28;20224;-78
2022/08/08 09:40:11;;;;;;;21.88;20.38;;;;;;;;;;5113459;28;20197;-80
2022/08/08 09:42:39;;;;;;;21.25;19.75;;;;;;;;;;5112903;28;20197;-79
2022/08/08 09:45:07;;;;;;;21.58;20.05;;;;;;;;;;5113334;28;20736;-78
2022/08/08 09:47:35;;;;;;;21.58;20.08;;;;;;;;;;5113097;28;20242;-77
2022/08/08 09:50:05;;;;;;;21.10;19.70;;;;;;;;;;5113234;28;20200;-76
2022/08/08 09:52:34;;;;;;;20.88;19.48;;;;;;;;;;5112853;28;20302;-78
2022/08/08 09:55:01;;;;;;;21.90;20.40;;;;;;;;;;5112783;28;20228;-72
2022/08/08 09:57:31;;;;;;;21.33;19.92;;;;;;;;;;5112783;28;20221;-79
2022/08/08 09:59:59;;;;;;;21.98;20.48;;;;;;;;;;5112845;28;20189;-76
2022/08/08 10:02:33;;;;;;;22.50;21.00;;;;;;;;;;5112897;28;20200;-76
2022/08/08 10:05:03;;;;;;;22.45;20.95;;;;;;;;;;5112948;28;20665;-75
2022/08/08 10:07:30;;;;;;;21.70;20.20;;;;;;;;;;5112837;28;20193;-78
2022/08/08 10:09:59;;;;;;;22.05;20.55;;;;;;;;;;5112645;28;20196;-80
2022/08/08 10:12:33;;;;;;;21.95;20.45;;;;;;;;;;5112712;28;20662;-77
2022/08/08 10:15:00;;;;;;;22.58;21.08;;;;;;;;;;5112595;28;20235;-76
2022/08/08 10:17:27;;;;;;;21.15;19.75;;;;;;;;;;5112624;28;20270;-77
2022/08/08 10:19:58;;;;;;;21.75;20.25;;;;;;;;;;5112341;28;20228;-79
2022/08/08 10:22:26;;;;;;;22.55;20.95;;;;;;;;;;5112697;28;20185;-75
2022/08/08 10:24:55;;;;;;;21.80;20.30;;;;;;;;;;5112367;28;20246;-73
2022/08/08 10:27:27;;;;;;;21.80;20.40;;;;;;;;;;5112528;28;20286;-75
2022/08/08 10:29:58;;;;;;;21.60;20.20;;;;;;;;;;5112634;28;20192;-76
2022/08/08 10:32:34;;;;;;;22.30;20.80;;;;;;;;;;5112485;28;20193;-78
2022/08/08 10:35:02;;;;;;;22.00;20.50;;;;;;;;;;5112330;28;20192;-76
2022/08/08 10:37:30;;;;;;;24.30;22.70;;;;;;;;;;5112316;28;20710;-77
2022/08/08 10:39:57;;;;;;;22.90;21.40;;;;;;;;;;5112270;28;20219;-79
2022/08/08 10:42:33;;;;;;;23.30;21.80;;;;;;;;;;5112175;28;20246;-77
2022/08/08 10:45:01;;;;;;;21.77;20.27;;;;;;;;;;5112721;28;20224;-76
2022/08/08 10:47:28;;;;;;;21.98;20.48;;;;;;;;;;5116962;28;20638;-76
2022/08/08 10:49:56;;;;;;;23.33;21.73;;;;;;;;;;5116291;28;20243;-81
2022/08/08 10:52:25;;;;;;;21.25;19.85;;;;;;;;;;5116267;28;20648;-77
2022/08/08 10:54:52;;;;;;;21.95;20.55;;;;;;;;;;5116648;28;20193;-78
2022/08/08 10:57:19;;;;;;;21.02;19.63;;;;;;;;;;5116102;28;20315;-75
2022/08/08 10:59:52;;;;;;;21.30;19.90;;;;;;;;;;5116113;28;20619;-74
2022/08/08 11:02:23;;;;;;;21.58;20.17;;;;;;;;;;5116145;28;20192;-79
2022/08/08 11:04:50;;;;;;;21.70;20.20;;;;;;;;;;5116222;28;20185;-79
2022/08/08 11:07:24;;;;;;;21.92;20.48;;;;;;;;;;5116058;28;20288;-77
2022/08/08 11:09:51;;;;;;;21.27;19.88;;;;;;;;;;5116178;28;20191;-77
2022/08/08 11:12:18;;;;;;;22.25;20.85;;;;;;;;;;5116078;28;20679;-75
2022/08/08 11:14:50;;;;;;;21.80;20.40;;;;;;;;;;5116134;28;20197;-81
2022/08/08 11:17:20;;;;;;;22.35;20.85;;;;;;;;;;5115905;28;20316;-78
2022/08/08 11:19:48;;;;;;;21.38;19.88;;;;;;;;;;5115965;28;20250;-75
2022/08/08 11:22:15;;;;;;;21.25;19.85;;;;;;;;;;5115942;28;20574;-77
2022/08/08 11:24:42;;;;;;;21.55;20.05;;;;;;;;;;5115892;28;20193;-79
2022/08/08 11:27:10;;;;;;;22.33;20.83;;;;;;;;;;5116040;28;20193;-78
2022/08/08 11:29:37;;;;;;;22.55;21.05;;;;;;;;;;5115811;28;20567;-76
2022/08/08 11:32:05;;;;;;;21.92;20.42;;;;;;;;;;5115560;28;20663;-78
2022/08/08 11:34:36;;;;;;;21.98;20.45;;;;;;;;;;5115701;28;20200;-77
2022/08/08 11:37:03;;;;;;;22.02;20.52;;;;;;;;;;5115527;28;20705;-78
2022/08/08 11:39:31;;;;;;;22.50;21.00;;;;;;;;;;5115616;28;20193;-78
2022/08/08 11:41:58;;;;;;;22.00;20.50;;;;;;;;;;5116869;28;20208;-76
2022/08/08 11:44:26;;;;;;;22.60;21.10;;;;;;;;;;5115465;28;20292;-77
2022/08/08 11:46:56;;;;;;;22.58;20.98;;;;;;;;;;5115428;28;20622;-76
2022/08/08 11:49:24;;;;;;;22.73;21.17;;;;;;;;;;5115636;28;20264;-79
2022/08/08 11:51:53;;;;;;;22.92;21.35;;;;;;;;;;5115607;28;20189;-75
2022/08/08 11:54:35;;;;;;;21.80;20.30;;;;;;;;;;5115141;28;20200;-78
2022/08/08 11:57:09;;;;;;;23.15;21.55;;;;;;;;;;5111665;28;20662;-76
2022/08/08 11:59:37;;;;;;;22.10;20.50;;;;;;;;;;5114924;28;20279;-78
2022/08/08 12:02:05;;;;;;;22.17;20.65;;;;;;;;;;5115296;28;20193;-75
2022/08/08 12:04:32;;;;;;;22.45;20.95;;;;;;;;;;5114919;28;20681;-82
2022/08/08 12:07:04;;;;;;;21.77;20.27;;;;;;;;;;5114864;28;20284;-77
2022/08/08 12:09:31;;;;;;;22.30;20.80;;;;;;;;;;5114949;28;20189;-79
2022/08/08 12:11:58;;;;;;;22.10;20.55;;;;;;;;;;5115608;28;20201;-77
2022/08/08 12:14:26;;;;;;;21.83;20.33;;;;;;;;;;5114907;28;20193;-76
2022/08/08 12:16:54;;;;;;;21.65;20.15;;;;;;;;;;5114937;28;20270;-79
2022/08/08 12:19:21;;;;;;;21.00;19.50;;;;;;;;;;5114418;28;20628;-76
2022/08/08 12:21:48;;;;;;;21.30;19.70;;;;;;;;;;5114564;28;20236;-79
2022/08/08 12:24:18;;;;;;;21.25;19.65;;;;;;;;;;5114466;28;20730;-78
2022/08/08 12:26:45;;;;;;;20.95;19.38;;;;;;;;;;5114373;28;20267;-77
2022/08/08 12:29:21;;;;;;;22.13;20.52;;;;;;;;;;5115437;28;20262;-78
2022/08/08 12:31:48;;;;;;;21.13;19.60;;;;;;;;;;5114542;28;20193;-75
2022/08/08 12:34:15;;;;;;;21.27;19.67;;;;;;;;;;5114263;28;20355;-75
2022/08/08 12:36:42;;;;;;;21.77;20.17;;;;;;;;;;5114135;28;20221;-75
2022/08/08 12:39:09;;;;;;;21.67;20.08;;;;;;;;;;5114083;28;20229;-76
2022/08/08 12:41:38;;;;;;;21.40;19.80;;;;;;;;;;5114119;28;20190;-79
2022/08/08 12:44:09;;;;;;;21.42;19.92;;;;;;;;;;5114113;28;20204;-80
2022/08/08 12:46:36;;;;;;;21.55;19.95;;;;;;;;;;5114052;28;20663;-75
2022/08/08 12:49:04;;;;;;;21.17;19.67;;;;;;;;;;5113978;28;20272;-76
2022/08/08 12:51:40;;;;;;;21.70;20.10;;;;;;;;;;5113804;28;20193;-76
2022/08/08 12:54:08;;;;;;;21.85;20.25;;;;;;;;;;5113822;28;20750;-76
2022/08/08 12:56:36;;;;;;;21.17;19.58;;;;;;;;;;5114005;28;20201;-76
2022/08/08 12:59:13;;;;;;;21.95;20.35;;;;;;;;;;5114129;28;20270;-79
2022/08/08 13:01:40;;;;;;;21.48;19.98;;;;;;;;;;5113723;28;20238;-76
2022/08/08 13:04:14;;;;;;;21.90;20.30;;;;;;;;;;5114010;28;20201;-76
2022/08/08 13:06:52;;;;;;;21.52;19.92;;;;;;;;;;5113572;28;20193;-72
2022/08/08 13:09:29;;;;;;;21.65;20.05;;;;;;;;;;5113089;28;20220;-77
2022/08/08 13:11:56;;;;;;;21.73;20.13;;;;;;;;;;5114635;28;20181;-77
2022/08/08 13:14:35;;;;;;;21.98;20.38;;;;;;;;;;5113429;28;20199;-76
2022/08/08 13:17:03;;;;;;;21.70;20.10;;;;;;;;;;5113888;28;20216;-77
2022/08/08 13:19:30;;;;;;;21.52;19.92;;;;;;;;;;5113651;28;20312;-79
2022/08/08 13:21:58;;;;;;;21.35;19.75;;;;;;;;;;5113774;28;20200;-76
2022/08/08 13:24:25;;;;;;;21.58;19.88;;;;;;;;;;5113569;28;20228;-73
2022/08/08 13:27:00;;;;;;;22.05;20.45;;;;;;;;;;5113255;28;20193;-77
2022/08/08 13:29:28;;;;;;;21.88;20.27;;;;;;;;;;5113293;28;20227;-78
2022/08/08 13:31:55;;;;;;;21.75;20.15;;;;;;;;;;5113428;28;20193;-77
2022/08/08 13:34:23;;;;;;;21.45;19.85;;;;;;;;;;5113475;28;20197;-75
2022/08/08 13:36:51;;;;;;;21.40;19.90;;;;;;;;;;5113649;28;20196;-77
2022/08/08 13:39:18;;;;;;;21.58;19.98;;;;;;;;;;5113241;28;20193;-79
2022/08/08 13:41:46;;;;;;;21.80;20.20;;;;;;;;;;5113269;28;20189;-80
2022/08/08 13:44:13;;;;;;;21.35;19.75;;;;;;;;;;5113047;28;20189;-77
2022/08/08 13:46:52;;;;;;;21.65;20.05;;;;;;;;;;5113693;28;20192;-77
2022/08/08 13:49:20;;;;;;;21.80;20.10;;;;;;;;;;5112814;28;20207;-77
2022/08/08 13:51:57;;;;;;;22.17;20.48;;;;;;;;;;5113025;28;20193;-76
2022/08/08 13:54:25;;;;;;;21.88;20.17;;;;;;;;;;5112882;28;20193;-78
2022/08/08 13:57:06;;;;;;;23.02;21.33;;;;;;;;;;5112746;28;20576;-76
2022/08/08 13:59:35;;;;;;;22.33;20.63;;;;;;;;;;5113163;28;20201;-76
2022/08/08 14:02:13;;;;;;;22.40;20.70;;;;;;;;;;5112868;28;20189;-78
2022/08/08 14:04:40;;;;;;;22.27;20.58;;;;;;;;;;5112913;28;20250;-73
2022/08/08 14:07:09;;;;;;;22.05;20.35;;;;;;;;;;5112826;28;20201;-76
2022/08/08 14:09:39;;;;;;;21.83;20.13;;;;;;;;;;5112744;28;20208;-78
2022/08/08 14:12:07;;;;;;;22.20;20.50;;;;;;;;;;5112857;28;20635;-73
2022/08/08 14:14:38;;;;;;;22.90;21.20;;;;;;;;;;5113017;28;20279;-75
2022/08/08 14:17:07;;;;;;;23.65;21.95;;;;;;;;;;5112865;28;20193;-78
2022/08/08 14:19:39;;;;;;;23.50;21.80;;;;;;;;;;5112329;28;20225;-76
2022/08/08 14:22:22;;;;;;;23.10;21.40;;;;;;;;;;5112436;28;20655;-82
2022/08/08 14:24:53;;;;;;;21.98;20.27;;;;;;;;;;5112744;28;20203;-76
2022/08/08 14:27:22;;;;;;;22.85;21.15;;;;;;;;;;5112339;28;20197;-78
2022/08/08 14:29:56;;;;;;;23.20;21.50;;;;;;;;;;5112398;28;20197;-77
2022/08/08 14:32:25;;;;;;;23.55;21.85;;;;;;;;;;5112574;28;20220;-74
2022/08/08 14:34:52;;;;;;;23.52;21.83;;;;;;;;;;5112309;28;20193;-75
2022/08/08 14:37:20;;;;;;;21.73;20.08;;;;;;;;;;5112379;28;20710;-79
2022/08/08 14:39:51;;;;;;;23.67;21.98;;;;;;;;;;5112593;28;20689;-77
2022/08/08 14:42:31;;;;;;;23.23;21.52;;;;;;;;;;5112577;28;20657;-77